sensor_id;sensor_type;location;lat;lon;timestamp;temperature;humidity
53065;DHT22;38948;48.376;-4.312;2022-12-18T00:02:16;17.60;55.30
53065;DHT22;38948;48.376;-4.312;2022-12-18T00:04:42;17.60;55.30
53065;DHT22;38948;48.376;-4.312;2022-12-18T00:07:08;17.60;55.40
53065;DHT22;38948;48.376;-4.312;2022-12-18T00:09:33;17.60;55.40
53065;DHT22;38948;48.376;-4.312;2022-12-18T00:11:59;17.60;55.40
53065;DHT22;38948;48.376;-4.312;2022-12-18T00:14:25;17.60;55.40
53065;DHT22;38948;48.376;-4.312;2022-12-18T00:16:51;17.60;55.40
53065;DHT22;38948;48.376;-4.312;2022-12-18T00:19:17;17.70;55.30
53065;DHT22;38948;48.376;-4.312;2022-12-18T00:21:43;17.80;55.10
53065;DHT22;38948;48.376;-4.312;2022-12-18T00:24:10;17.80;55.00
53065;DHT22;38948;48.376;-4.312;2022-12-18T00:26:38;17.80;55.00
53065;DHT22;38948;48.376;-4.312;2022-12-18T00:29:11;17.80;55.00
53065;DHT22;38948;48.376;-4.312;2022-12-18T00:31:39;17.80;55.10
53065;DHT22;38948;48.376;-4.312;2022-12-18T00:34:05;17.80;55.10
53065;DHT22;38948;48.376;-4.312;2022-12-18T00:36:34;17.80;55.10
53065;DHT22;38948;48.376;-4.312;2022-12-18T00:39:03;17.80;55.10
53065;DHT22;38948;48.376;-4.312;2022-12-18T00:41:30;17.90;55.00
53065;DHT22;38948;48.376;-4.312;2022-12-18T00:44:15;17.80;55.10
53065;DHT22;38948;48.376;-4.312;2022-12-18T00:46:43;17.80;55.00
53065;DHT22;38948;48.376;-4.312;2022-12-18T00:49:08;17.80;55.30
53065;DHT22;38948;48.376;-4.312;2022-12-18T00:51:34;17.80;55.30
53065;DHT22;38948;48.376;-4.312;2022-12-18T00:54:00;17.80;55.10
53065;DHT22;38948;48.376;-4.312;2022-12-18T00:56:26;17.80;55.10
53065;DHT22;38948;48.376;-4.312;2022-12-18T00:58:52;17.80;55.00
53065;DHT22;38948;48.376;-4.312;2022-12-18T01:01:18;17.90;55.10
53065;DHT22;38948;48.376;-4.312;2022-12-18T01:03:44;17.80;55.20
53065;DHT22;38948;48.376;-4.312;2022-12-18T01:06:14;17.90;55.10
53065;DHT22;38948;48.376;-4.312;2022-12-18T01:08:40;17.90;55.20
53065;DHT22;38948;48.376;-4.312;2022-12-18T01:11:14;17.90;55.10
53065;DHT22;38948;48.376;-4.312;2022-12-18T01:13:40;17.90;55.20
53065;DHT22;38948;48.376;-4.312;2022-12-18T01:16:06;17.90;55.10
53065;DHT22;38948;48.376;-4.312;2022-12-18T01:18:32;17.90;55.10
53065;DHT22;38948;48.376;-4.312;2022-12-18T01:20:58;17.90;55.20
53065;DHT22;38948;48.376;-4.312;2022-12-18T01:23:24;17.90;55.10
53065;DHT22;38948;48.376;-4.312;2022-12-18T01:25:50;17.90;55.10
53065;DHT22;38948;48.376;-4.312;2022-12-18T01:28:16;17.90;55.10
53065;DHT22;38948;48.376;-4.312;2022-12-18T01:30:41;17.90;55.00
53065;DHT22;38948;48.376;-4.312;2022-12-18T01:33:07;17.90;55.00
53065;DHT22;38948;48.376;-4.312;2022-12-18T01:35:33;17.90;55.00
53065;DHT22;38948;48.376;-4.312;2022-12-18T01:37:59;17.90;54.90
53065;DHT22;38948;48.376;-4.312;2022-12-18T01:40:24;18.00;54.90
53065;DHT22;38948;48.376;-4.312;2022-12-18T01:42:53;18.00;54.80
53065;DHT22;38948;48.376;-4.312;2022-12-18T01:45:26;18.00;54.90
53065;DHT22;38948;48.376;-4.312;2022-12-18T01:50:37;17.90;55.00
53065;DHT22;38948;48.376;-4.312;2022-12-18T01:55:44;18.00;55.00
53065;DHT22;38948;48.376;-4.312;2022-12-18T01:58:10;18.00;55.00
53065;DHT22;38948;48.376;-4.312;2022-12-18T02:00:36;18.00;54.90
53065;DHT22;38948;48.376;-4.312;2022-12-18T02:03:02;18.00;55.10
53065;DHT22;38948;48.376;-4.312;2022-12-18T02:13:20;18.00;55.10
53065;DHT22;38948;48.376;-4.312;2022-12-18T02:16:24;18.00;55.10
53065;DHT22;38948;48.376;-4.312;2022-12-18T02:19:00;18.00;55.20
53065;DHT22;38948;48.376;-4.312;2022-12-18T02:27:03;18.00;55.10
53065;DHT22;38948;48.376;-4.312;2022-12-18T02:29:36;18.00;55.20
53065;DHT22;38948;48.376;-4.312;2022-12-18T02:32:09;18.00;55.20
53065;DHT22;38948;48.376;-4.312;2022-12-18T02:34:38;18.00;55.10
53065;DHT22;38948;48.376;-4.312;2022-12-18T02:37:08;18.00;55.20
53065;DHT22;38948;48.376;-4.312;2022-12-18T02:39:37;18.00;55.10
53065;DHT22;38948;48.376;-4.312;2022-12-18T02:42:04;18.10;55.10
53065;DHT22;38948;48.376;-4.312;2022-12-18T02:44:47;18.10;55.10
53065;DHT22;38948;48.376;-4.312;2022-12-18T02:47:16;18.10;55.10
53065;DHT22;38948;48.376;-4.312;2022-12-18T02:55:12;18.10;55.10
53065;DHT22;38948;48.376;-4.312;2022-12-18T03:00:28;18.10;55.00
53065;DHT22;38948;48.376;-4.312;2022-12-18T03:06:04;18.10;55.20
53065;DHT22;38948;48.376;-4.312;2022-12-18T03:08:42;18.10;55.20
53065;DHT22;38948;48.376;-4.312;2022-12-18T03:11:10;18.10;55.20
53065;DHT22;38948;48.376;-4.312;2022-12-18T03:13:48;18.10;55.20
53065;DHT22;38948;48.376;-4.312;2022-12-18T03:16:22;18.10;55.10
53065;DHT22;38948;48.376;-4.312;2022-12-18T03:18:49;18.10;55.10
53065;DHT22;38948;48.376;-4.312;2022-12-18T03:21:20;18.20;55.00
53065;DHT22;38948;48.376;-4.312;2022-12-18T03:23:49;18.10;55.10
53065;DHT22;38948;48.376;-4.312;2022-12-18T03:26:22;18.10;55.10
53065;DHT22;38948;48.376;-4.312;2022-12-18T03:29:02;18.10;55.20
53065;DHT22;38948;48.376;-4.312;2022-12-18T03:31:30;18.10;55.10
53065;DHT22;38948;48.376;-4.312;2022-12-18T03:34:04;18.10;55.20
53065;DHT22;38948;48.376;-4.312;2022-12-18T03:36:30;18.10;55.10
53065;DHT22;38948;48.376;-4.312;2022-12-18T03:38:57;18.10;55.10
53065;DHT22;38948;48.376;-4.312;2022-12-18T03:41:45;18.10;55.10
53065;DHT22;38948;48.376;-4.312;2022-12-18T03:47:42;18.20;55.20
53065;DHT22;38948;48.376;-4.312;2022-12-18T03:50:22;18.20;55.10
53065;DHT22;38948;48.376;-4.312;2022-12-18T03:55:41;18.10;55.20
53065;DHT22;38948;48.376;-4.312;2022-12-18T03:58:10;18.20;55.20
53065;DHT22;38948;48.376;-4.312;2022-12-18T04:00:39;18.20;55.20
53065;DHT22;38948;48.376;-4.312;2022-12-18T04:03:06;18.20;55.20
53065;DHT22;38948;48.376;-4.312;2022-12-18T04:05:34;18.20;55.10
53065;DHT22;38948;48.376;-4.312;2022-12-18T04:08:03;18.20;55.10
53065;DHT22;38948;48.376;-4.312;2022-12-18T04:10:29;18.20;55.10
53065;DHT22;38948;48.376;-4.312;2022-12-18T04:12:56;18.20;55.10
53065;DHT22;38948;48.376;-4.312;2022-12-18T04:15:23;18.20;55.10
53065;DHT22;38948;48.376;-4.312;2022-12-18T04:17:49;18.20;55.00
53065;DHT22;38948;48.376;-4.312;2022-12-18T04:20:16;18.20;55.00
53065;DHT22;38948;48.376;-4.312;2022-12-18T04:22:42;18.20;55.10
53065;DHT22;38948;48.376;-4.312;2022-12-18T04:25:12;18.20;55.00
53065;DHT22;38948;48.376;-4.312;2022-12-18T04:27:37;18.20;55.00
53065;DHT22;38948;48.376;-4.312;2022-12-18T04:30:03;18.20;55.00
53065;DHT22;38948;48.376;-4.312;2022-12-18T04:32:29;18.20;55.10
53065;DHT22;38948;48.376;-4.312;2022-12-18T04:34:56;18.20;55.10
53065;DHT22;38948;48.376;-4.312;2022-12-18T04:37:21;18.20;55.10
53065;DHT22;38948;48.376;-4.312;2022-12-18T04:39:47;18.20;55.10
53065;DHT22;38948;48.376;-4.312;2022-12-18T04:42:13;18.20;55.10
53065;DHT22;38948;48.376;-4.312;2022-12-18T04:44:39;18.20;55.10
53065;DHT22;38948;48.376;-4.312;2022-12-18T04:47:04;18.20;55.10
53065;DHT22;38948;48.376;-4.312;2022-12-18T04:49:33;18.20;55.30
53065;DHT22;38948;48.376;-4.312;2022-12-18T04:51:59;18.20;55.30
53065;DHT22;38948;48.376;-4.312;2022-12-18T04:54:24;18.20;55.30
53065;DHT22;38948;48.376;-4.312;2022-12-18T04:56:50;18.20;55.30
53065;DHT22;38948;48.376;-4.312;2022-12-18T04:59:16;18.20;55.30
53065;DHT22;38948;48.376;-4.312;2022-12-18T05:01:42;18.30;55.30
53065;DHT22;38948;48.376;-4.312;2022-12-18T05:04:08;18.30;55.20
53065;DHT22;38948;48.376;-4.312;2022-12-18T05:06:34;18.30;55.40
53065;DHT22;38948;48.376;-4.312;2022-12-18T05:08:59;18.30;55.40
53065;DHT22;38948;48.376;-4.312;2022-12-18T05:11:25;18.30;55.40
53065;DHT22;38948;48.376;-4.312;2022-12-18T05:13:51;18.30;55.50
53065;DHT22;38948;48.376;-4.312;2022-12-18T05:16:17;18.30;55.40
53065;DHT22;38948;48.376;-4.312;2022-12-18T05:18:43;18.30;55.40
53065;DHT22;38948;48.376;-4.312;2022-12-18T05:21:09;18.30;55.40
53065;DHT22;38948;48.376;-4.312;2022-12-18T05:23:35;18.30;55.50
53065;DHT22;38948;48.376;-4.312;2022-12-18T05:26:03;18.30;55.40
53065;DHT22;38948;48.376;-4.312;2022-12-18T05:28:30;18.30;55.50
53065;DHT22;38948;48.376;-4.312;2022-12-18T05:31:00;18.30;55.50
53065;DHT22;38948;48.376;-4.312;2022-12-18T05:33:28;18.30;55.40
53065;DHT22;38948;48.376;-4.312;2022-12-18T05:35:57;18.30;55.40
53065;DHT22;38948;48.376;-4.312;2022-12-18T05:38:25;18.30;55.50
53065;DHT22;38948;48.376;-4.312;2022-12-18T05:40:52;18.30;55.30
53065;DHT22;38948;48.376;-4.312;2022-12-18T05:43:22;18.30;55.30
53065;DHT22;38948;48.376;-4.312;2022-12-18T05:45:49;18.40;55.30
53065;DHT22;38948;48.376;-4.312;2022-12-18T05:48:15;18.40;55.30
53065;DHT22;38948;48.376;-4.312;2022-12-18T05:50:42;18.40;55.30
53065;DHT22;38948;48.376;-4.312;2022-12-18T05:53:11;18.30;55.30
53065;DHT22;38948;48.376;-4.312;2022-12-18T05:55:38;18.40;55.30
53065;DHT22;38948;48.376;-4.312;2022-12-18T05:58:06;18.40;55.30
53065;DHT22;38948;48.376;-4.312;2022-12-18T06:00:33;18.40;55.50
53065;DHT22;38948;48.376;-4.312;2022-12-18T06:03:00;18.40;55.30
53065;DHT22;38948;48.376;-4.312;2022-12-18T06:05:26;18.40;55.30
53065;DHT22;38948;48.376;-4.312;2022-12-18T06:07:52;18.40;55.30
53065;DHT22;38948;48.376;-4.312;2022-12-18T06:10:18;18.40;55.30
53065;DHT22;38948;48.376;-4.312;2022-12-18T06:12:44;18.40;55.50
53065;DHT22;38948;48.376;-4.312;2022-12-18T06:15:10;18.40;55.50
53065;DHT22;38948;48.376;-4.312;2022-12-18T06:17:36;18.40;55.50
53065;DHT22;38948;48.376;-4.312;2022-12-18T06:20:03;18.40;55.50
53065;DHT22;38948;48.376;-4.312;2022-12-18T06:22:31;18.40;55.50
53065;DHT22;38948;48.376;-4.312;2022-12-18T06:24:57;18.50;55.30
53065;DHT22;38948;48.376;-4.312;2022-12-18T06:27:23;18.50;55.30
53065;DHT22;38948;48.376;-4.312;2022-12-18T06:29:48;18.40;55.30
53065;DHT22;38948;48.376;-4.312;2022-12-18T06:32:14;18.50;55.50
53065;DHT22;38948;48.376;-4.312;2022-12-18T06:34:40;18.50;55.30
53065;DHT22;38948;48.376;-4.312;2022-12-18T06:37:08;18.50;55.50
53065;DHT22;38948;48.376;-4.312;2022-12-18T06:39:34;18.50;55.50
53065;DHT22;38948;48.376;-4.312;2022-12-18T06:42:00;18.50;55.50
53065;DHT22;38948;48.376;-4.312;2022-12-18T06:44:26;18.50;55.50
53065;DHT22;38948;48.376;-4.312;2022-12-18T06:46:52;18.50;55.50
53065;DHT22;38948;48.376;-4.312;2022-12-18T06:49:18;18.50;55.50
53065;DHT22;38948;48.376;-4.312;2022-12-18T06:51:43;18.50;55.50
53065;DHT22;38948;48.376;-4.312;2022-12-18T06:54:09;18.50;55.50
53065;DHT22;38948;48.376;-4.312;2022-12-18T06:56:35;18.50;55.50
53065;DHT22;38948;48.376;-4.312;2022-12-18T06:59:01;18.50;55.50
53065;DHT22;38948;48.376;-4.312;2022-12-18T07:01:27;18.50;55.50
53065;DHT22;38948;48.376;-4.312;2022-12-18T07:03:54;18.60;55.40
53065;DHT22;38948;48.376;-4.312;2022-12-18T07:06:22;18.60;55.40
53065;DHT22;38948;48.376;-4.312;2022-12-18T07:08:49;18.60;55.40
53065;DHT22;38948;48.376;-4.312;2022-12-18T07:11:15;18.60;55.40
53065;DHT22;38948;48.376;-4.312;2022-12-18T07:13:42;18.60;55.40
53065;DHT22;38948;48.376;-4.312;2022-12-18T07:16:13;18.60;55.40
53065;DHT22;38948;48.376;-4.312;2022-12-18T07:18:39;18.60;55.40
53065;DHT22;38948;48.376;-4.312;2022-12-18T07:21:08;18.60;55.40
53065;DHT22;38948;48.376;-4.312;2022-12-18T07:23:34;18.60;55.40
53065;DHT22;38948;48.376;-4.312;2022-12-18T07:26:04;18.60;55.30
53065;DHT22;38948;48.376;-4.312;2022-12-18T07:28:32;18.70;55.40
53065;DHT22;38948;48.376;-4.312;2022-12-18T07:31:01;18.70;55.40
53065;DHT22;38948;48.376;-4.312;2022-12-18T07:33:27;18.70;55.40
53065;DHT22;38948;48.376;-4.312;2022-12-18T07:35:53;18.70;55.40
53065;DHT22;38948;48.376;-4.312;2022-12-18T07:38:19;18.70;55.40
53065;DHT22;38948;48.376;-4.312;2022-12-18T07:40:44;18.70;55.40
53065;DHT22;38948;48.376;-4.312;2022-12-18T07:43:10;18.70;55.40
53065;DHT22;38948;48.376;-4.312;2022-12-18T07:45:36;18.70;55.30
53065;DHT22;38948;48.376;-4.312;2022-12-18T07:48:02;18.70;55.30
53065;DHT22;38948;48.376;-4.312;2022-12-18T07:50:27;18.70;55.40
53065;DHT22;38948;48.376;-4.312;2022-12-18T07:52:53;18.70;55.40
53065;DHT22;38948;48.376;-4.312;2022-12-18T07:55:19;18.70;55.40
53065;DHT22;38948;48.376;-4.312;2022-12-18T07:57:45;18.80;55.40
53065;DHT22;38948;48.376;-4.312;2022-12-18T08:00:11;18.80;55.40
53065;DHT22;38948;48.376;-4.312;2022-12-18T08:02:37;18.80;55.40
53065;DHT22;38948;48.376;-4.312;2022-12-18T08:05:03;18.80;55.40
53065;DHT22;38948;48.376;-4.312;2022-12-18T08:07:29;18.80;55.40
53065;DHT22;38948;48.376;-4.312;2022-12-18T08:09:55;18.80;55.40
53065;DHT22;38948;48.376;-4.312;2022-12-18T08:12:21;18.80;55.40
53065;DHT22;38948;48.376;-4.312;2022-12-18T08:14:46;18.80;55.40
53065;DHT22;38948;48.376;-4.312;2022-12-18T08:17:12;18.80;55.40
53065;DHT22;38948;48.376;-4.312;2022-12-18T08:19:38;18.80;55.40
53065;DHT22;38948;48.376;-4.312;2022-12-18T08:22:04;18.80;55.40
53065;DHT22;38948;48.376;-4.312;2022-12-18T08:24:29;18.80;55.40
53065;DHT22;38948;48.376;-4.312;2022-12-18T08:26:55;18.80;55.40
53065;DHT22;38948;48.376;-4.312;2022-12-18T08:29:22;18.90;55.40
53065;DHT22;38948;48.376;-4.312;2022-12-18T08:31:48;18.80;55.40
53065;DHT22;38948;48.376;-4.312;2022-12-18T08:34:14;18.90;55.50
53065;DHT22;38948;48.376;-4.312;2022-12-18T08:36:40;18.90;55.50
53065;DHT22;38948;48.376;-4.312;2022-12-18T08:39:06;18.90;55.50
53065;DHT22;38948;48.376;-4.312;2022-12-18T08:41:31;18.90;55.50
53065;DHT22;38948;48.376;-4.312;2022-12-18T08:43:57;18.90;55.50
53065;DHT22;38948;48.376;-4.312;2022-12-18T08:46:43;18.90;55.50
53065;DHT22;38948;48.376;-4.312;2022-12-18T08:49:10;18.90;55.60
53065;DHT22;38948;48.376;-4.312;2022-12-18T08:51:37;18.90;55.60
53065;DHT22;38948;48.376;-4.312;2022-12-18T08:54:03;18.90;55.60
53065;DHT22;38948;48.376;-4.312;2022-12-18T08:56:29;18.90;55.60
53065;DHT22;38948;48.376;-4.312;2022-12-18T08:58:55;18.90;55.70
53065;DHT22;38948;48.376;-4.312;2022-12-18T09:01:22;18.90;55.70
53065;DHT22;38948;48.376;-4.312;2022-12-18T09:03:49;18.90;55.70
53065;DHT22;38948;48.376;-4.312;2022-12-18T09:06:18;18.90;55.70
53065;DHT22;38948;48.376;-4.312;2022-12-18T09:08:44;19.00;55.70
53065;DHT22;38948;48.376;-4.312;2022-12-18T09:11:21;19.00;55.80
53065;DHT22;38948;48.376;-4.312;2022-12-18T09:13:48;19.00;55.80
53065;DHT22;38948;48.376;-4.312;2022-12-18T09:16:14;19.00;55.80
53065;DHT22;38948;48.376;-4.312;2022-12-18T09:18:46;19.00;55.90
53065;DHT22;38948;48.376;-4.312;2022-12-18T09:21:19;19.00;55.90
53065;DHT22;38948;48.376;-4.312;2022-12-18T09:23:52;19.00;55.90
53065;DHT22;38948;48.376;-4.312;2022-12-18T09:26:19;19.00;55.90
53065;DHT22;38948;48.376;-4.312;2022-12-18T09:28:45;19.00;55.90
53065;DHT22;38948;48.376;-4.312;2022-12-18T09:31:13;19.10;56.10
53065;DHT22;38948;48.376;-4.312;2022-12-18T09:33:39;19.20;56.50
53065;DHT22;38948;48.376;-4.312;2022-12-18T09:36:08;19.20;56.60
53065;DHT22;38948;48.376;-4.312;2022-12-18T09:38:35;19.20;56.30
53065;DHT22;38948;48.376;-4.312;2022-12-18T09:43:53;19.20;56.30
53065;DHT22;38948;48.376;-4.312;2022-12-18T09:46:25;19.20;56.30
53065;DHT22;38948;48.376;-4.312;2022-12-18T09:48:54;19.20;56.30
53065;DHT22;38948;48.376;-4.312;2022-12-18T09:51:30;19.20;56.30
53065;DHT22;38948;48.376;-4.312;2022-12-18T09:54:03;19.30;56.40
53065;DHT22;38948;48.376;-4.312;2022-12-18T09:56:35;19.30;56.30
53065;DHT22;38948;48.376;-4.312;2022-12-18T09:59:03;19.30;56.30
53065;DHT22;38948;48.376;-4.312;2022-12-18T10:01:31;19.30;56.20
53065;DHT22;38948;48.376;-4.312;2022-12-18T10:03:57;19.30;56.20
53065;DHT22;38948;48.376;-4.312;2022-12-18T10:06:35;19.30;56.20
53065;DHT22;38948;48.376;-4.312;2022-12-18T10:09:15;19.40;56.20
53065;DHT22;38948;48.376;-4.312;2022-12-18T10:11:51;19.40;56.50
53065;DHT22;38948;48.376;-4.312;2022-12-18T10:15:01;19.40;57.40
53065;DHT22;38948;48.376;-4.312;2022-12-18T10:17:50;19.40;57.50
53065;DHT22;38948;48.376;-4.312;2022-12-18T10:20:41;19.40;57.50
53065;DHT22;38948;48.376;-4.312;2022-12-18T10:23:23;19.40;57.70
53065;DHT22;38948;48.376;-4.312;2022-12-18T10:26:04;19.40;58.10
53065;DHT22;38948;48.376;-4.312;2022-12-18T10:28:32;19.40;58.40
53065;DHT22;38948;48.376;-4.312;2022-12-18T10:30:59;19.40;58.60
53065;DHT22;38948;48.376;-4.312;2022-12-18T10:33:29;19.40;58.90
53065;DHT22;38948;48.376;-4.312;2022-12-18T10:35:55;19.40;59.10
53065;DHT22;38948;48.376;-4.312;2022-12-18T10:38:26;19.40;59.20
53065;DHT22;38948;48.376;-4.312;2022-12-18T10:43:29;19.40;59.40
53065;DHT22;38948;48.376;-4.312;2022-12-18T10:48:30;19.40;59.40
53065;DHT22;38948;48.376;-4.312;2022-12-18T10:50:56;19.40;59.30
53065;DHT22;38948;48.376;-4.312;2022-12-18T10:53:30;19.40;59.30
53065;DHT22;38948;48.376;-4.312;2022-12-18T10:55:58;19.40;59.30
53065;DHT22;38948;48.376;-4.312;2022-12-18T10:58:31;19.40;59.40
53065;DHT22;38948;48.376;-4.312;2022-12-18T11:01:13;19.40;59.30
53065;DHT22;38948;48.376;-4.312;2022-12-18T11:06:22;19.40;59.20
53065;DHT22;38948;48.376;-4.312;2022-12-18T11:09:02;19.40;59.20
53065;DHT22;38948;48.376;-4.312;2022-12-18T11:11:28;19.40;59.20
53065;DHT22;38948;48.376;-4.312;2022-12-18T11:16:24;19.40;59.30
53065;DHT22;38948;48.376;-4.312;2022-12-18T11:18:50;19.40;59.20
53065;DHT22;38948;48.376;-4.312;2022-12-18T11:21:16;19.40;59.20
53065;DHT22;38948;48.376;-4.312;2022-12-18T11:23:51;19.40;59.10
53065;DHT22;38948;48.376;-4.312;2022-12-18T11:26:18;19.40;59.00
53065;DHT22;38948;48.376;-4.312;2022-12-18T11:28:50;19.40;58.90
53065;DHT22;38948;48.376;-4.312;2022-12-18T11:31:26;19.40;58.90
53065;DHT22;38948;48.376;-4.312;2022-12-18T11:36:40;19.40;58.70
53065;DHT22;38948;48.376;-4.312;2022-12-18T11:39:37;19.40;58.90
53065;DHT22;38948;48.376;-4.312;2022-12-18T11:42:04;19.40;58.80
53065;DHT22;38948;48.376;-4.312;2022-12-18T11:47:29;19.40;58.60
53065;DHT22;38948;48.376;-4.312;2022-12-18T11:50:03;19.50;58.60
53065;DHT22;38948;48.376;-4.312;2022-12-18T11:52:37;19.50;58.70
53065;DHT22;38948;48.376;-4.312;2022-12-18T11:58:16;19.50;58.60
53065;DHT22;38948;48.376;-4.312;2022-12-18T12:03:51;19.50;58.60
53065;DHT22;38948;48.376;-4.312;2022-12-18T12:09:29;19.50;58.50
53065;DHT22;38948;48.376;-4.312;2022-12-18T12:17:42;19.50;58.40
53065;DHT22;38948;48.376;-4.312;2022-12-18T12:23:04;19.50;58.50
53065;DHT22;38948;48.376;-4.312;2022-12-18T12:25:33;19.50;58.50
53065;DHT22;38948;48.376;-4.312;2022-12-18T12:28:31;19.50;58.50
53065;DHT22;38948;48.376;-4.312;2022-12-18T12:39:42;19.50;58.40
53065;DHT22;38948;48.376;-4.312;2022-12-18T12:42:44;19.50;58.40
53065;DHT22;38948;48.376;-4.312;2022-12-18T12:45:55;19.50;58.40
53065;DHT22;38948;48.376;-4.312;2022-12-18T12:48:49;19.50;58.30
53065;DHT22;38948;48.376;-4.312;2022-12-18T12:51:22;19.50;58.30
53065;DHT22;38948;48.376;-4.312;2022-12-18T12:53:49;19.50;58.40
53065;DHT22;38948;48.376;-4.312;2022-12-18T12:56:17;19.50;58.30
53065;DHT22;38948;48.376;-4.312;2022-12-18T12:58:58;19.50;58.40
53065;DHT22;38948;48.376;-4.312;2022-12-18T13:04:21;19.50;58.60
53065;DHT22;38948;48.376;-4.312;2022-12-18T13:07:23;19.50;58.70
53065;DHT22;38948;48.376;-4.312;2022-12-18T13:12:59;19.50;58.80
53065;DHT22;38948;48.376;-4.312;2022-12-18T13:15:43;19.50;58.80
53065;DHT22;38948;48.376;-4.312;2022-12-18T13:25:56;19.60;59.10
53065;DHT22;38948;48.376;-4.312;2022-12-18T13:31:10;19.60;59.10
53065;DHT22;38948;48.376;-4.312;2022-12-18T13:33:44;19.60;59.10
53065;DHT22;38948;48.376;-4.312;2022-12-18T13:36:31;19.60;59.10
53065;DHT22;38948;48.376;-4.312;2022-12-18T13:39:11;19.60;59.10
53065;DHT22;38948;48.376;-4.312;2022-12-18T13:41:37;19.60;59.10
53065;DHT22;38948;48.376;-4.312;2022-12-18T13:46:52;19.60;59.10
53065;DHT22;38948;48.376;-4.312;2022-12-18T13:52:01;19.60;59.10
53065;DHT22;38948;48.376;-4.312;2022-12-18T13:54:35;19.60;59.10
53065;DHT22;38948;48.376;-4.312;2022-12-18T13:57:02;19.60;59.10
53065;DHT22;38948;48.376;-4.312;2022-12-18T13:59:36;19.60;59.10
53065;DHT22;38948;48.376;-4.312;2022-12-18T14:02:13;19.70;59.10
53065;DHT22;38948;48.376;-4.312;2022-12-18T14:04:39;19.70;59.10
53065;DHT22;38948;48.376;-4.312;2022-12-18T14:09:47;19.70;59.20
53065;DHT22;38948;48.376;-4.312;2022-12-18T14:12:22;19.70;59.20
53065;DHT22;38948;48.376;-4.312;2022-12-18T14:17:50;19.70;59.20
53065;DHT22;38948;48.376;-4.312;2022-12-18T14:20:17;19.70;59.30
53065;DHT22;38948;48.376;-4.312;2022-12-18T14:22:48;19.70;59.30
53065;DHT22;38948;48.376;-4.312;2022-12-18T14:25:22;19.70;59.40
53065;DHT22;38948;48.376;-4.312;2022-12-18T14:28:02;19.70;59.40
53065;DHT22;38948;48.376;-4.312;2022-12-18T14:30:33;19.70;59.40
53065;DHT22;38948;48.376;-4.312;2022-12-18T14:33:05;19.70;59.50
53065;DHT22;38948;48.376;-4.312;2022-12-18T14:36:22;19.70;59.50
53065;DHT22;38948;48.376;-4.312;2022-12-18T14:38:33;19.70;59.50
53065;DHT22;38948;48.376;-4.312;2022-12-18T14:41:08;19.70;59.50
53065;DHT22;38948;48.376;-4.312;2022-12-18T14:43:37;19.70;59.60
53065;DHT22;38948;48.376;-4.312;2022-12-18T14:46:06;19.70;59.60
53065;DHT22;38948;48.376;-4.312;2022-12-18T14:48:51;19.70;59.70
53065;DHT22;38948;48.376;-4.312;2022-12-18T14:51:28;19.70;59.70
53065;DHT22;38948;48.376;-4.312;2022-12-18T14:53:57;19.70;59.70
53065;DHT22;38948;48.376;-4.312;2022-12-18T14:56:29;19.70;59.70
53065;DHT22;38948;48.376;-4.312;2022-12-18T14:59:37;19.70;59.70
53065;DHT22;38948;48.376;-4.312;2022-12-18T15:07:14;19.70;59.90
53065;DHT22;38948;48.376;-4.312;2022-12-18T15:09:41;19.70;59.90
53065;DHT22;38948;48.376;-4.312;2022-12-18T15:12:33;19.70;60.00
53065;DHT22;38948;48.376;-4.312;2022-12-18T15:15:03;19.70;60.00
53065;DHT22;38948;48.376;-4.312;2022-12-18T15:17:29;19.70;60.00
53065;DHT22;38948;48.376;-4.312;2022-12-18T15:20:08;19.70;60.10
53065;DHT22;38948;48.376;-4.312;2022-12-18T15:22:36;19.70;60.10
53065;DHT22;38948;48.376;-4.312;2022-12-18T15:25:03;19.70;60.10
53065;DHT22;38948;48.376;-4.312;2022-12-18T15:27:46;19.70;60.20
53065;DHT22;38948;48.376;-4.312;2022-12-18T15:30:18;19.70;60.20
53065;DHT22;38948;48.376;-4.312;2022-12-18T15:32:45;19.70;60.20
53065;DHT22;38948;48.376;-4.312;2022-12-18T15:35:13;19.70;60.30
53065;DHT22;38948;48.376;-4.312;2022-12-18T15:37:39;19.70;60.30
53065;DHT22;38948;48.376;-4.312;2022-12-18T15:40:06;19.70;60.30
53065;DHT22;38948;48.376;-4.312;2022-12-18T15:42:34;19.80;60.30
53065;DHT22;38948;48.376;-4.312;2022-12-18T15:45:18;19.80;60.40
53065;DHT22;38948;48.376;-4.312;2022-12-18T15:47:45;19.80;60.40
53065;DHT22;38948;48.376;-4.312;2022-12-18T15:50:10;19.80;60.40
53065;DHT22;38948;48.376;-4.312;2022-12-18T15:52:44;19.80;60.40
53065;DHT22;38948;48.376;-4.312;2022-12-18T15:55:14;19.80;60.50
53065;DHT22;38948;48.376;-4.312;2022-12-18T15:57:59;19.80;60.50
53065;DHT22;38948;48.376;-4.312;2022-12-18T16:00:25;19.80;60.50
53065;DHT22;38948;48.376;-4.312;2022-12-18T16:02:51;19.80;62.40
53065;DHT22;38948;48.376;-4.312;2022-12-18T16:05:18;19.80;63.20
53065;DHT22;38948;48.376;-4.312;2022-12-18T16:07:46;19.80;62.90
53065;DHT22;38948;48.376;-4.312;2022-12-18T16:10:12;19.80;63.00
53065;DHT22;38948;48.376;-4.312;2022-12-18T16:12:38;19.80;63.40
53065;DHT22;38948;48.376;-4.312;2022-12-18T16:15:05;19.80;63.30
53065;DHT22;38948;48.376;-4.312;2022-12-18T16:17:31;19.80;63.50
53065;DHT22;38948;48.376;-4.312;2022-12-18T16:19:57;19.80;63.40
53065;DHT22;38948;48.376;-4.312;2022-12-18T16:22:28;19.80;63.50
53065;DHT22;38948;48.376;-4.312;2022-12-18T16:24:55;19.80;63.30
53065;DHT22;38948;48.376;-4.312;2022-12-18T16:27:22;19.80;63.40
53065;DHT22;38948;48.376;-4.312;2022-12-18T16:29:49;19.80;63.50
53065;DHT22;38948;48.376;-4.312;2022-12-18T16:32:17;19.90;63.50
53065;DHT22;38948;48.376;-4.312;2022-12-18T16:34:44;19.90;63.70
53065;DHT22;38948;48.376;-4.312;2022-12-18T16:37:12;19.90;63.60
53065;DHT22;38948;48.376;-4.312;2022-12-18T16:39:39;19.90;63.70
53065;DHT22;38948;48.376;-4.312;2022-12-18T16:42:14;19.90;64.00
53065;DHT22;38948;48.376;-4.312;2022-12-18T16:44:42;19.90;64.20
53065;DHT22;38948;48.376;-4.312;2022-12-18T16:47:08;19.90;64.30
53065;DHT22;38948;48.376;-4.312;2022-12-18T16:49:34;19.90;65.10
53065;DHT22;38948;48.376;-4.312;2022-12-18T16:52:03;19.90;65.50
53065;DHT22;38948;48.376;-4.312;2022-12-18T16:54:29;20.00;65.80
53065;DHT22;38948;48.376;-4.312;2022-12-18T16:56:55;20.00;65.90
53065;DHT22;38948;48.376;-4.312;2022-12-18T16:59:21;20.00;65.80
53065;DHT22;38948;48.376;-4.312;2022-12-18T17:01:48;20.00;66.30
53065;DHT22;38948;48.376;-4.312;2022-12-18T17:04:14;20.10;66.70
53065;DHT22;38948;48.376;-4.312;2022-12-18T17:06:42;20.10;67.00
53065;DHT22;38948;48.376;-4.312;2022-12-18T17:09:11;20.10;67.20
53065;DHT22;38948;48.376;-4.312;2022-12-18T17:11:42;20.10;67.10
53065;DHT22;38948;48.376;-4.312;2022-12-18T17:14:14;20.10;67.10
53065;DHT22;38948;48.376;-4.312;2022-12-18T17:16:41;20.10;67.30
53065;DHT22;38948;48.376;-4.312;2022-12-18T17:19:07;20.10;67.40
53065;DHT22;38948;48.376;-4.312;2022-12-18T17:21:33;20.20;67.70
53065;DHT22;38948;48.376;-4.312;2022-12-18T17:24:00;20.20;68.00
53065;DHT22;38948;48.376;-4.312;2022-12-18T17:26:26;20.20;68.10